createdAt,value
2023-03-22T00:02:04.090Z,79.33
2023-03-22T00:04:30.487Z,79.64
2023-03-22T00:06:58.261Z,80.50
2023-03-22T00:09:24.811Z,79.09
2023-03-22T00:11:51.491Z,79.74
2023-03-22T00:14:18.124Z,79.32
2023-03-22T00:16:44.553Z,80.19
2023-03-22T00:19:10.961Z,79.21
2023-03-22T00:21:37.392Z,78.79
2023-03-22T00:24:05.756Z,79.10
2023-03-22T00:26:32.208Z,80.20
2023-03-22T00:28:58.633Z,80.58
2023-03-22T00:31:25.029Z,79.63
2023-03-22T00:33:51.684Z,79.67
2023-03-22T00:36:18.122Z,80.97
2023-03-22T00:38:45.095Z,80.13
2023-03-22T00:41:14.903Z,78.42
2023-03-22T00:43:41.640Z,80.26
2023-03-22T00:46:08.759Z,80.48
2023-03-22T00:48:35.448Z,78.64
2023-03-22T00:51:01.949Z,79.29
2023-03-22T00:53:28.535Z,80.69
2023-03-22T00:55:55.146Z,80.98
2023-03-22T00:58:23.089Z,80.17
2023-03-22T01:00:49.735Z,81.18
2023-03-22T01:03:16.414Z,81.31
2023-03-22T01:05:45.259Z,80.78
2023-03-22T01:08:13.072Z,80.98
2023-03-22T01:10:41.807Z,81.64
2023-03-22T01:13:09.261Z,81.44
2023-03-22T01:15:37.434Z,80.79
2023-03-22T01:18:04.200Z,80.26
2023-03-22T01:20:31.781Z,78.32
2023-03-22T01:22:58.197Z,80.77
2023-03-22T01:25:24.609Z,81.30
2023-03-22T01:27:51.253Z,81.51
2023-03-22T01:30:18.111Z,82.00
2023-03-22T01:32:45.951Z,81.51
2023-03-22T01:35:12.399Z,80.77
2023-03-22T01:37:38.807Z,81.28
2023-03-22T01:40:07.065Z,80.94
2023-03-22T01:42:33.489Z,80.83
2023-03-22T01:45:38.327Z,80.09
2023-03-22T01:48:14.429Z,79.87
2023-03-22T01:50:44.497Z,81.20
2023-03-22T01:53:13.910Z,81.02
2023-03-22T01:55:41.329Z,80.39
2023-03-22T01:58:08.198Z,81.18
2023-03-22T02:00:34.678Z,80.20
2023-03-22T02:03:01.443Z,81.45
2023-03-22T02:05:29.833Z,80.24
2023-03-22T02:07:56.501Z,80.21
2023-03-22T02:10:26.156Z,79.25
2023-03-22T02:13:10.931Z,79.47
2023-03-22T02:15:41.467Z,80.84
2023-03-22T02:18:21.952Z,80.29
2023-03-22T02:21:15.775Z,79.68
2023-03-22T02:24:27.654Z,79.43
2023-03-22T02:27:17.825Z,81.32
2023-03-22T02:29:47.049Z,80.20
2023-03-22T02:32:43.828Z,81.81
2023-03-22T02:35:38.678Z,82.06
2023-03-22T02:38:38.411Z,81.37
2023-03-22T02:41:13.665Z,80.83
2023-03-22T02:43:48.999Z,81.08
2023-03-22T02:46:21.848Z,81.04
2023-03-22T02:48:58.086Z,81.66
2023-03-22T02:51:33.021Z,81.62
2023-03-22T02:54:04.101Z,81.33
2023-03-22T02:56:35.663Z,81.57
2023-03-22T02:59:05.058Z,81.65
2023-03-22T03:01:37.915Z,79.91
2023-03-22T03:04:09.272Z,80.46
2023-03-22T03:06:40.055Z,80.70
2023-03-22T03:09:07.941Z,81.02
2023-03-22T03:11:35.766Z,80.15
2023-03-22T03:14:02.232Z,80.81
2023-03-22T03:16:32.215Z,80.57
2023-03-22T03:19:01.009Z,80.06
2023-03-22T03:21:35.981Z,80.45
2023-03-22T03:24:21.711Z,81.00
2023-03-22T03:26:57.916Z,80.75
2023-03-22T03:29:32.992Z,80.61
2023-03-22T03:32:04.855Z,80.32
2023-03-22T03:34:34.598Z,80.21
2023-03-22T03:37:06.201Z,80.43
2023-03-22T03:39:37.983Z,79.73
2023-03-22T03:42:11.449Z,79.77
2023-03-22T03:44:39.134Z,78.52
2023-03-22T03:47:07.465Z,78.91
2023-03-22T03:49:34.505Z,80.19
2023-03-22T03:52:00.905Z,79.50
2023-03-22T03:54:27.343Z,78.16
2023-03-22T03:56:54.213Z,81.06
2023-03-22T03:59:21.930Z,79.71
2023-03-22T04:01:48.519Z,78.47
2023-03-22T04:04:15.040Z,78.28
2023-03-22T04:06:41.477Z,77.07
2023-03-22T04:09:07.982Z,78.90
2023-03-22T04:11:34.418Z,78.15
2023-03-22T04:14:01.023Z,78.83
2023-03-22T04:16:28.873Z,77.92
2023-03-22T04:18:55.338Z,80.47
2023-03-22T04:21:21.790Z,78.85
2023-03-22T04:23:48.267Z,77.85
2023-03-22T04:26:14.897Z,78.12
2023-03-22T04:28:41.313Z,77.66
2023-03-22T04:31:07.769Z,78.23
2023-03-22T04:33:35.563Z,79.09
2023-03-22T04:36:04.153Z,79.88
2023-03-22T04:38:31.015Z,79.17
2023-03-22T04:40:57.518Z,78.01
2023-03-22T04:43:24.014Z,78.33
2023-03-22T04:45:50.536Z,78.37
2023-03-22T04:48:17.086Z,78.05
2023-03-22T04:50:44.846Z,78.82
2023-03-22T04:53:11.292Z,77.30
2023-03-22T04:55:37.726Z,78.48
2023-03-22T04:58:04.181Z,78.30
2023-03-22T05:00:30.686Z,77.54
2023-03-22T05:02:57.430Z,78.64
2023-03-22T05:05:24.026Z,79.79
2023-03-22T05:07:51.829Z,77.90
2023-03-22T05:10:18.409Z,79.26
2023-03-22T05:12:44.894Z,79.35
2023-03-22T05:15:11.734Z,80.38
2023-03-22T05:17:38.181Z,79.03
2023-03-22T05:20:05.530Z,79.90
2023-03-22T05:22:31.923Z,81.06
2023-03-22T05:24:59.949Z,81.01
2023-03-22T05:27:26.382Z,79.72
2023-03-22T05:29:52.808Z,80.11
2023-03-22T05:32:19.386Z,80.29
2023-03-22T05:34:45.798Z,81.60
2023-03-22T05:37:12.221Z,80.74
2023-03-22T05:39:38.661Z,80.91
2023-03-22T05:42:06.450Z,80.43
2023-03-22T05:44:32.811Z,79.30
2023-03-22T05:46:59.385Z,80.91
2023-03-22T05:49:25.907Z,80.33
2023-03-22T05:51:52.356Z,80.65
2023-03-22T05:54:18.838Z,80.93
2023-03-22T05:56:45.262Z,81.93
2023-03-22T05:59:13.001Z,82.27
2023-03-22T06:01:39.497Z,83.29
2023-03-22T06:04:05.983Z,81.81
2023-03-22T06:06:32.575Z,80.29
2023-03-22T06:09:14.179Z,80.19
2023-03-22T06:11:42.251Z,80.62
2023-03-22T06:14:08.674Z,82.29
2023-03-22T06:16:36.802Z,79.99
2023-03-22T06:19:03.634Z,81.70
2023-03-22T06:21:30.062Z,82.54
2023-03-22T06:23:56.510Z,81.03
2023-03-22T06:26:22.934Z,82.05
2023-03-22T06:28:49.313Z,81.13
2023-03-22T06:31:15.748Z,79.53
2023-03-22T06:33:43.534Z,79.71
2023-03-22T06:36:10.286Z,78.49
2023-03-22T06:38:36.648Z,76.39
2023-03-22T06:41:03.253Z,76.54
2023-03-22T06:43:29.683Z,76.90
2023-03-22T06:45:56.080Z,76.81
2023-03-22T06:48:22.963Z,76.70
2023-03-22T06:50:50.745Z,73.72
2023-03-22T06:53:17.192Z,74.12
2023-03-22T06:55:43.552Z,77.25
2023-03-22T06:58:10.092Z,74.04
2023-03-22T07:00:36.739Z,77.15
2023-03-22T07:03:03.138Z,76.25
2023-03-22T07:05:29.705Z,75.49
2023-03-22T07:07:57.413Z,76.63
2023-03-22T07:10:23.780Z,77.47
2023-03-22T07:12:50.167Z,78.77
2023-03-22T07:15:16.852Z,77.22
2023-03-22T07:17:43.261Z,76.62
2023-03-22T07:20:10.194Z,75.95
2023-03-22T07:22:36.581Z,76.70
2023-03-22T07:25:05.087Z,75.41
2023-03-22T07:27:31.611Z,74.82
2023-03-22T07:29:57.982Z,71.58
2023-03-22T07:32:24.374Z,71.79
2023-03-22T07:34:50.840Z,72.98
2023-03-22T07:37:17.193Z,71.10
2023-03-22T07:39:43.571Z,72.21
2023-03-22T07:42:11.342Z,72.61
2023-03-22T07:44:37.707Z,73.61
2023-03-22T07:47:04.306Z,74.39
2023-03-22T07:49:31.205Z,74.13
2023-03-22T07:51:58.084Z,74.01
2023-03-22T07:54:33.363Z,72.35
2023-03-22T07:57:01.176Z,72.64
2023-03-22T07:59:29.035Z,72.24
2023-03-22T08:01:55.476Z,67.98
2023-03-22T08:04:21.982Z,68.75
2023-03-22T08:06:48.460Z,67.68
2023-03-22T08:09:14.851Z,66.79
2023-03-22T08:11:41.216Z,69.70
2023-03-22T08:14:07.616Z,67.20
2023-03-22T08:16:35.474Z,64.82
2023-03-22T08:19:01.916Z,67.29
2023-03-22T08:21:28.282Z,63.56
2023-03-22T08:23:54.639Z,64.05
2023-03-22T08:26:21.304Z,65.66
2023-03-22T08:28:47.758Z,64.38
2023-03-22T08:31:16.635Z,66.80
2023-03-22T08:33:44.954Z,64.02
2023-03-22T08:36:13.814Z,61.44
2023-03-22T08:38:40.181Z,64.48
2023-03-22T08:41:06.853Z,63.25
2023-03-22T08:43:33.241Z,63.69
2023-03-22T08:45:59.905Z,62.69
2023-03-22T08:48:26.394Z,64.52
2023-03-22T08:50:54.161Z,64.10
2023-03-22T08:53:20.521Z,64.28
2023-03-22T08:55:46.904Z,63.26
2023-03-22T08:58:14.199Z,63.24
2023-03-22T09:00:48.719Z,62.61
2023-03-22T09:03:16.107Z,62.75
2023-03-22T09:05:42.532Z,61.91
2023-03-22T09:08:18.126Z,59.58
2023-03-22T09:10:45.640Z,61.24
2023-03-22T09:13:12.017Z,62.71
2023-03-22T09:15:38.608Z,62.64
2023-03-22T09:18:05.211Z,61.37
2023-03-22T09:20:31.587Z,60.33
2023-03-22T09:22:57.968Z,60.42
2023-03-22T09:25:25.744Z,61.31
2023-03-22T09:27:52.132Z,60.53
2023-03-22T09:30:19.093Z,60.73
2023-03-22T09:32:45.556Z,58.66
2023-03-22T09:35:11.936Z,60.93
2023-03-22T09:37:38.512Z,59.87
2023-03-22T09:40:06.624Z,61.80
2023-03-22T09:42:38.311Z,58.32
2023-03-22T09:45:08.738Z,61.50
2023-03-22T09:47:44.806Z,59.72
2023-03-22T09:50:13.822Z,56.29
2023-03-22T09:52:40.560Z,57.44
2023-03-22T09:55:13.829Z,59.08
2023-03-22T09:57:41.727Z,56.57
2023-03-22T10:00:18.429Z,57.16
2023-03-22T10:02:53.285Z,57.73
2023-03-22T10:05:27.094Z,56.50
2023-03-22T10:08:13.916Z,55.94
2023-03-22T10:10:41.036Z,56.82
2023-03-22T10:13:16.388Z,56.74
2023-03-22T10:15:46.846Z,57.57
2023-03-22T10:18:18.794Z,56.27
2023-03-22T10:20:52.076Z,53.39
2023-03-22T10:23:24.744Z,53.24
2023-03-22T10:25:53.026Z,52.65
2023-03-22T10:28:23.817Z,55.21
2023-03-22T10:30:53.961Z,53.20
2023-03-22T10:33:30.237Z,55.14
2023-03-22T10:35:57.395Z,53.89
2023-03-22T10:38:27.304Z,52.73
2023-03-22T10:40:56.672Z,51.26
2023-03-22T10:43:29.846Z,51.58
2023-03-22T10:45:57.989Z,50.14
2023-03-22T10:48:28.580Z,51.94
2023-03-22T10:50:56.943Z,51.94
2023-03-22T10:53:31.621Z,50.87
2023-03-22T10:55:58.572Z,52.22
2023-03-22T10:58:31.882Z,50.00
2023-03-22T11:01:00.035Z,50.20
2023-03-22T11:03:30.439Z,50.74
2023-03-22T11:06:03.057Z,50.14
2023-03-22T11:08:29.663Z,49.16
2023-03-22T11:10:56.055Z,52.73
2023-03-22T11:13:23.050Z,51.82
2023-03-22T11:15:55.096Z,49.93
2023-03-22T11:18:21.948Z,49.39
2023-03-22T11:20:57.826Z,50.50
2023-03-22T11:23:25.220Z,51.45
2023-03-22T11:25:55.115Z,51.88
2023-03-22T11:28:25.862Z,50.40
2023-03-22T11:31:02.973Z,52.11
2023-03-22T11:33:30.352Z,50.70
2023-03-22T11:35:58.173Z,48.27
2023-03-22T11:38:27.461Z,49.25
2023-03-22T11:40:56.747Z,48.84
2023-03-22T11:43:25.940Z,48.84
2023-03-22T11:45:57.070Z,47.85
2023-03-22T11:48:27.734Z,47.22
2023-03-22T11:50:58.331Z,48.37
2023-03-22T11:53:27.051Z,47.85
2023-03-22T11:55:55.545Z,47.52
2023-03-22T11:58:26.007Z,48.16
2023-03-22T12:00:54.871Z,47.92
2023-03-22T12:03:26.092Z,47.61
2023-03-22T12:05:54.776Z,48.85
2023-03-22T12:08:27.538Z,47.57
2023-03-22T12:11:01.648Z,47.59
2023-03-22T12:13:36.094Z,46.58
2023-03-22T12:16:05.775Z,48.45
2023-03-22T12:18:38.705Z,47.98
2023-03-22T12:21:09.999Z,46.74
2023-03-22T12:23:36.728Z,46.72
2023-03-22T12:26:07.189Z,49.15
2023-03-22T12:28:39.952Z,47.10
2023-03-22T12:31:11.234Z,47.09
2023-03-22T12:33:43.147Z,47.68
2023-03-22T12:36:16.642Z,47.90
2023-03-22T12:38:48.162Z,47.29
2023-03-22T12:41:16.797Z,47.55
2023-03-22T12:43:50.631Z,47.94
2023-03-22T12:46:21.401Z,47.97
2023-03-22T12:48:52.077Z,47.31
2023-03-22T12:51:19.806Z,48.22
2023-03-22T12:53:49.865Z,48.99
2023-03-22T12:56:19.807Z,47.02
2023-03-22T12:58:49.290Z,47.23
2023-03-22T13:01:23.477Z,46.18
2023-03-22T13:03:52.808Z,47.70
2023-03-22T13:06:34.783Z,46.23
2023-03-22T13:09:10.941Z,46.77
2023-03-22T13:11:37.450Z,47.17
2023-03-22T13:14:04.041Z,45.26
2023-03-22T13:16:51.739Z,47.02
2023-03-22T13:19:33.146Z,46.83
2023-03-22T13:22:25.618Z,47.03
2023-03-22T13:25:01.164Z,47.61
2023-03-22T13:27:36.448Z,47.43
2023-03-22T13:30:03.444Z,47.88
2023-03-22T13:32:32.181Z,46.19
2023-03-22T13:34:59.490Z,45.99
2023-03-22T13:37:32.888Z,46.88
2023-03-22T13:39:59.322Z,46.96
2023-03-22T13:42:34.840Z,46.80
2023-03-22T13:45:01.228Z,47.66
2023-03-22T13:47:36.967Z,47.01
2023-03-22T13:50:12.605Z,49.20
2023-03-22T13:52:43.740Z,48.47
2023-03-22T13:55:34.180Z,48.36
2023-03-22T13:58:00.665Z,47.12
2023-03-22T14:00:38.074Z,46.72
2023-03-22T14:03:13.896Z,46.97
2023-03-22T14:05:44.809Z,50.06
2023-03-22T14:08:21.363Z,50.39
2023-03-22T14:10:56.207Z,50.16
2023-03-22T14:13:30.589Z,52.98
2023-03-22T14:16:02.937Z,53.33
2023-03-22T14:18:31.229Z,54.02
2023-03-22T14:21:00.740Z,52.22
